Time;durP1;ratioP1;P1;durP2;ratioP2;P2;SDS_P1;SDS_P2;PMS_P1;PMS_P2;Temp;Humidity;BMP_temperature;BMP_pressure;BME280_temperature;BME280_humidity;BME280_pressure;Samples;Min_cycle;Max_cycle;Signal;HPM_P1;HPM_P2
2022/07/22 00:01:49;;;;;;;2.50;1.23;;;23.90;66.20;;;;;;10369428;28;20449;-61
2022/07/22 00:06:50;;;;;;;3.30;1.58;;;23.90;66.20;;;;;;10393640;28;20033;-61
2022/07/22 00:11:50;;;;;;;1.77;0.98;;;23.80;66.10;;;;;;10395773;28;20034;-62
2022/07/22 00:16:51;;;;;;;2.72;1.10;;;23.80;66.20;;;;;;10394902;28;20144;-61
2022/07/22 00:21:53;;;;;;;7.93;1.00;;;23.80;66.10;;;;;;10391569;28;20033;-61
2022/07/22 00:26:55;;;;;;;3.28;1.30;;;23.80;66.10;;;;;;10381571;28;20088;-61
2022/07/22 00:31:55;;;;;;;2.28;0.90;;;23.80;66.10;;;;;;10408582;28;20564;-62
2022/07/22 00:36:56;;;;;;;3.88;1.00;;;23.80;66.10;;;;;;10390374;28;20021;-61
2022/07/22 00:41:58;;;;;;;2.42;1.25;;;23.80;66.10;;;;;;10401626;28;20044;-60
2022/07/22 00:46:59;;;;;;;1.77;0.93;;;23.80;66.00;;;;;;10376751;28;20041;-61
2022/07/22 00:52:01;;;;;;;3.42;1.27;;;23.80;66.00;;;;;;10367002;28;20099;-61
2022/07/22 00:57:01;;;;;;;1.67;1.00;;;23.80;66.00;;;;;;10366752;28;20088;-61
2022/07/22 01:02:02;;;;;;;1.65;1.00;;;23.80;66.00;;;;;;10406186;28;20059;-61
2022/07/22 01:07:04;;;;;;;2.83;1.45;;;23.80;66.00;;;;;;10371384;28;20137;-61
2022/07/22 01:12:04;;;;;;;1.98;1.20;;;23.80;66.00;;;;;;10376778;28;20041;-61
2022/07/22 01:17:05;;;;;;;2.13;1.23;;;23.80;66.00;;;;;;10390726;28;20041;-61
2022/07/22 01:22:07;;;;;;;7.88;2.50;;;23.70;65.90;;;;;;10384892;28;20428;-61
2022/07/22 01:27:08;;;;;;;2.35;1.10;;;23.70;65.90;;;;;;10366491;28;20065;-61
2022/07/22 01:32:08;;;;;;;1.70;1.08;;;23.80;65.90;;;;;;10378177;28;20688;-62
2022/07/22 01:37:10;;;;;;;3.35;1.15;;;23.70;65.80;;;;;;10396119;28;20052;-61
2022/07/22 01:42:11;;;;;;;1.40;0.90;;;23.70;65.90;;;;;;10390059;28;20050;-61
2022/07/22 01:47:12;;;;;;;1.60;0.82;;;23.70;65.90;;;;;;10410949;28;20056;-61
2022/07/22 01:52:12;;;;;;;2.10;1.48;;;23.70;65.80;;;;;;10388062;28;20090;-60
2022/07/22 01:57:13;;;;;;;1.90;0.93;;;23.70;65.80;;;;;;10386263;28;20112;-62
2022/07/22 02:02:14;;;;;;;1.50;0.95;;;23.70;65.80;;;;;;10374618;28;20363;-61
2022/07/22 02:07:15;;;;;;;3.58;1.30;;;23.70;65.80;;;;;;10413476;28;20030;-60
2022/07/22 02:12:15;;;;;;;1.55;0.90;;;23.70;65.80;;;;;;10400164;28;20029;-61
2022/07/22 02:17:16;;;;;;;2.63;1.20;;;23.60;65.80;;;;;;10401486;28;20045;-61
2022/07/22 02:22:17;;;;;;;2.60;1.00;;;23.60;65.70;;;;;;10382623;28;20463;-61
2022/07/22 02:27:18;;;;;;;1.38;0.73;;;23.70;65.70;;;;;;10386766;28;20096;-61
2022/07/22 02:32:19;;;;;;;1.17;0.93;;;23.60;66.30;;;;;;10372493;28;20389;-62
2022/07/22 02:37:19;;;;;;;1.75;1.02;;;23.60;65.70;;;;;;10380231;28;20034;-61
2022/07/22 02:42:20;;;;;;;1.15;0.75;;;23.60;65.70;;;;;;10412717;28;20101;-61
2022/07/22 02:47:21;;;;;;;1.88;0.90;;;23.60;65.70;;;;;;10391178;28;20468;-61
2022/07/22 02:52:22;;;;;;;1.42;0.90;;;23.60;65.60;;;;;;10386553;28;20440;-61
2022/07/22 02:57:22;;;;;;;1.77;0.80;;;23.60;65.70;;;;;;10371633;28;20042;-61
2022/07/22 03:02:23;;;;;;;1.95;0.98;;;23.60;65.70;;;;;;10387419;28;20499;-61
2022/07/22 03:07:24;;;;;;;2.53;0.90;;;23.60;65.60;;;;;;10398571;28;20476;-61
2022/07/22 03:12:24;;;;;;;2.35;1.33;;;23.60;65.60;;;;;;10380458;28;20486;-61
2022/07/22 03:17:25;;;;;;;1.00;0.80;;;23.60;65.60;;;;;;10371193;28;20038;-61
2022/07/22 03:22:26;;;;;;;1.25;1.00;;;23.60;65.60;;;;;;10369996;28;20025;-61
2022/07/22 03:27:27;;;;;;;2.25;1.13;;;23.50;65.60;;;;;;10407995;28;20033;-61
2022/07/22 03:32:27;;;;;;;1.10;0.85;;;23.50;65.50;;;;;;10409488;28;20033;-61
2022/07/22 03:37:28;;;;;;;1.40;1.00;;;23.50;65.50;;;;;;10395739;28;20121;-61
2022/07/22 03:42:29;;;;;;;1.60;1.20;;;23.50;65.50;;;;;;10381340;28;20049;-61
2022/07/22 03:47:30;;;;;;;1.48;0.93;;;23.50;65.50;;;;;;10369578;28;20517;-61
2022/07/22 03:52:31;;;;;;;2.55;0.88;;;23.50;65.50;;;;;;10401799;28;20384;-61
2022/07/22 03:57:32;;;;;;;2.30;0.70;;;23.50;65.50;;;;;;10388117;28;20091;-61
2022/07/22 04:02:32;;;;;;;2.15;0.80;;;23.50;65.50;;;;;;10374252;28;20072;-60
2022/07/22 04:07:33;;;;;;;0.73;0.52;;;23.50;65.50;;;;;;10373606;28;20046;-61
2022/07/22 04:12:36;;;;;;;2.08;0.98;;;23.50;65.50;;;;;;10398528;28;20029;-61
2022/07/22 04:17:37;;;;;;;3.28;1.05;;;23.50;65.60;;;;;;10408951;28;20067;-61
2022/07/22 04:22:37;;;;;;;1.23;0.80;;;23.50;65.70;;;;;;10382142;28;20113;-60
2022/07/22 04:27:38;;;;;;;1.17;0.70;;;23.50;65.90;;;;;;10389232;28;20560;-61
2022/07/22 04:32:39;;;;;;;1.83;1.13;;;23.50;65.80;;;;;;10384425;28;20048;-61
2022/07/22 04:37:40;;;;;;;2.15;1.25;;;23.50;66.00;;;;;;10396235;28;20034;-60
2022/07/22 04:42:41;;;;;;;1.00;0.90;;;23.50;66.00;;;;;;10389275;28;20052;-60
2022/07/22 04:47:41;;;;;;;12.15;2.03;;;23.50;66.00;;;;;;10368018;28;20112;-61
2022/07/22 04:52:42;;;;;;;3.40;1.90;;;23.50;66.80;;;;;;10380539;28;20128;-63
2022/07/22 04:57:42;;;;;;;5.10;1.83;;;23.60;67.10;;;;;;10394374;28;20029;-62
2022/07/22 05:02:43;;;;;;;8.27;1.67;;;23.70;67.10;;;;;;10409205;28;20044;-64
2022/07/22 05:07:44;;;;;;;11.40;1.75;;;23.70;67.30;;;;;;10371267;28;20113;-61
2022/07/22 05:12:45;;;;;;;9.70;2.28;;;23.80;68.20;;;;;;10366738;28;20477;-61
2022/07/22 05:17:45;;;;;;;12.55;1.80;;;23.70;68.00;;;;;;10405621;28;20025;-63
2022/07/22 05:22:46;;;;;;;11.43;1.80;;;23.70;68.00;;;;;;10378641;28;20034;-62
2022/07/22 05:27:54;;;;;;;7.72;1.90;;;23.70;68.20;;;;;;10387307;28;20515;-64
2022/07/22 05:32:55;;;;;;;16.20;2.20;;;23.60;68.00;;;;;;10385330;28;20037;-61
2022/07/22 05:37:56;;;;;;;10.30;1.83;;;23.70;68.30;;;;;;10384679;28;20502;-64
2022/07/22 05:42:57;;;;;;;5.65;1.63;;;23.70;68.50;;;;;;10373598;28;20038;-61
2022/07/22 05:47:57;;;;;;;9.85;1.80;;;23.70;68.40;;;;;;10390706;28;20030;-65
2022/07/22 05:52:58;;;;;;;6.93;1.88;;;23.70;68.70;;;;;;10383529;28;20048;-63
2022/07/22 05:57:59;;;;;;;16.90;2.92;;;23.70;68.50;;;;;;10389168;28;20030;-62
2022/07/22 06:02:59;;;;;;;11.88;2.30;;;23.70;68.30;;;;;;10382557;28;20104;-61
2022/07/22 06:08:00;;;;;;;11.98;2.63;;;23.60;67.00;;;;;;10382482;28;20433;-61
2022/07/22 06:13:01;;;;;;;18.73;4.25;;;23.60;66.40;;;;;;10391663;28;20120;-61
2022/07/22 06:18:01;;;;;;;18.67;4.22;;;23.50;65.90;;;;;;10379257;28;20365;-61
2022/07/22 06:23:02;;;;;;;9.48;2.47;;;23.50;65.60;;;;;;10386662;28;20405;-61
2022/07/22 06:28:03;;;;;;;6.82;2.15;;;23.50;65.70;;;;;;10409115;28;20075;-61
2022/07/22 06:33:04;;;;;;;9.63;2.17;;;23.50;65.30;;;;;;10394741;28;20091;-60
2022/07/22 06:38:05;;;;;;;7.50;3.03;;;23.50;65.10;;;;;;10390013;28;20087;-61
2022/07/22 06:43:06;;;;;;;12.18;2.67;;;23.50;64.80;;;;;;10389201;28;20034;-59
2022/07/22 06:48:06;;;;;;;7.80;2.42;;;23.40;64.10;;;;;;10396608;28;20053;-61
2022/07/22 06:53:07;;;;;;;3.90;1.63;;;23.40;64.40;;;;;;10378970;28;20040;-60
2022/07/22 06:58:08;;;;;;;7.50;2.15;;;23.40;63.70;;;;;;10383884;28;20037;-61
2022/07/22 07:03:08;;;;;;;5.93;2.20;;;23.40;63.90;;;;;;10379938;28;20071;-62
2022/07/22 07:08:09;;;;;;;11.63;2.65;;;23.40;64.20;;;;;;10381822;28;20424;-62
2022/07/22 07:13:10;;;;;;;6.07;1.88;;;23.40;63.70;;;;;;10381150;28;20053;-62
2022/07/22 07:18:11;;;;;;;8.25;2.08;;;23.40;63.40;;;;;;10381211;28;20370;-61
2022/07/22 07:23:12;;;;;;;3.17;1.30;;;23.40;63.60;;;;;;10388708;28;20527;-62
2022/07/22 07:28:13;;;;;;;4.30;2.20;;;23.30;63.50;;;;;;10396110;28;20066;-62
2022/07/22 07:33:14;;;;;;;5.35;1.90;;;23.30;63.20;;;;;;10352867;28;20026;-62
2022/07/22 07:38:14;;;;;;;5.85;2.40;;;23.30;63.30;;;;;;10397531;28;20037;-62
2022/07/22 07:43:15;;;;;;;4.35;1.88;;;23.40;63.90;;;;;;10381655;28;20049;-60
2022/07/22 07:48:16;;;;;;;3.40;2.25;;;23.30;62.80;;;;;;10387601;28;20782;-61
2022/07/22 07:53:17;;;;;;;4.97;2.30;;;23.30;62.30;;;;;;10394839;28;20041;-61
2022/07/22 07:58:18;;;;;;;3.65;1.48;;;23.30;62.00;;;;;;10393262;28;20045;-60
2022/07/22 08:03:19;;;;;;;4.55;1.85;;;23.30;61.70;;;;;;10371141;28;20087;-61
2022/07/22 08:08:20;;;;;;;2.47;1.50;;;23.30;61.50;;;;;;10390117;28;20040;-60
2022/07/22 08:13:20;;;;;;;7.60;2.42;;;23.30;63.00;;;;;;10402791;28;20025;-60
2022/07/22 08:18:21;;;;;;;6.68;2.15;;;23.30;63.10;;;;;;10385350;28;20038;-61
2022/07/22 08:23:22;;;;;;;6.78;2.17;;;23.30;63.30;;;;;;10392784;28;20036;-61
2022/07/22 08:28:23;;;;;;;7.50;2.35;;;23.30;63.90;;;;;;10395872;28;20482;-61
2022/07/22 08:33:24;;;;;;;6.55;1.83;;;23.20;62.50;;;;;;10384763;28;20041;-61
2022/07/22 08:38:24;;;;;;;7.68;1.90;;;23.20;62.00;;;;;;10379302;28;20028;-61
2022/07/22 08:43:25;;;;;;;7.80;2.00;;;23.20;62.50;;;;;;10366511;28;20057;-60
2022/07/22 08:48:26;;;;;;;7.72;2.13;;;23.20;62.40;;;;;;10368049;28;20095;-60
2022/07/22 08:53:27;;;;;;;7.40;2.15;;;23.20;62.40;;;;;;10363371;28;20041;-61
2022/07/22 08:58:28;;;;;;;9.30;2.42;;;23.20;62.50;;;;;;10386761;28;20037;-59
2022/07/22 09:03:28;;;;;;;7.05;1.80;;;23.20;62.60;;;;;;10375988;28;20026;-59
2022/07/22 09:08:29;;;;;;;9.15;1.90;;;23.20;62.70;;;;;;10378887;28;20113;-60
2022/07/22 09:13:33;;;;;;;6.82;2.00;;;23.20;63.00;;;;;;10366324;28;20116;-61
2022/07/22 09:18:57;;;;;;;3.63;1.95;;;23.20;63.10;;;;;;10366039;28;20040;-61
2022/07/22 09:23:58;;;;;;;3.58;1.52;;;23.20;63.00;;;;;;10367155;28;20066;-61
2022/07/22 09:28:59;;;;;;;7.18;1.80;;;23.20;63.20;;;;;;10376430;28;20473;-60
2022/07/22 09:34:02;;;;;;;5.22;1.60;;;23.20;63.40;;;;;;10380019;28;20689;-61
2022/07/22 09:39:30;;;;;;;6.05;2.40;;;23.20;63.50;;;;;;10374304;28;20044;-59
2022/07/22 09:44:31;;;;;;;2.90;1.27;;;23.30;63.70;;;;;;10380952;28;20057;-61
2022/07/22 09:49:39;;;;;;;8.85;2.60;;;23.30;64.10;;;;;;10382782;28;20338;-62
2022/07/22 09:54:41;;;;;;;4.87;1.97;;;23.30;65.90;;;;;;10371076;28;20096;-62
2022/07/22 09:59:43;;;;;;;5.13;1.85;;;23.40;68.40;;;;;;10389047;28;20088;-62
2022/07/22 10:04:46;;;;;;;6.07;1.80;;;23.40;67.80;;;;;;10401437;28;20022;-62
2022/07/22 10:09:47;;;;;;;9.50;2.55;;;23.40;67.30;;;;;;10381884;28;20393;-59
2022/07/22 10:14:50;;;;;;;5.13;2.05;;;23.50;66.50;;;;;;10373157;28;20041;-59
2022/07/22 10:19:51;;;;;;;4.80;1.88;;;23.50;66.50;;;;;;10387233;28;20075;-61
2022/07/22 10:25:02;;;;;;;10.07;2.63;;;23.50;66.90;;;;;;10398778;28;20079;-60
2022/07/22 10:30:05;;;;;;;11.38;2.30;;;23.60;67.00;;;;;;10383332;28;20034;-60
2022/07/22 10:35:11;;;;;;;4.00;1.77;;;23.60;67.10;;;;;;10373192;28;20084;-60
2022/07/22 10:40:28;;;;;;;7.60;2.08;;;23.60;67.50;;;;;;10381777;28;20455;-60
2022/07/22 10:45:45;;;;;;;8.10;2.22;;;23.60;67.80;;;;;;10392659;28;20040;-61
2022/07/22 10:51:04;;;;;;;13.32;3.40;;;23.70;67.50;;;;;;10389251;28;20028;-61
2022/07/22 10:56:11;;;;;;;17.52;3.03;;;23.60;68.00;;;;;;10374548;28;20325;-61
2022/07/22 11:01:15;;;;;;;9.55;3.05;;;23.60;67.70;;;;;;10388199;28;20022;-60
2022/07/22 11:06:30;;;;;;;14.52;2.85;;;23.50;67.00;;;;;;10390053;28;20053;-60
2022/07/22 11:11:41;;;;;;;11.95;3.00;;;23.50;66.30;;;;;;10408695;28;20473;-61
2022/07/22 11:16:43;;;;;;;12.05;2.42;;;23.50;65.70;;;;;;10387982;28;20030;-60
2022/07/22 11:21:53;;;;;;;15.60;2.75;;;23.50;65.20;;;;;;10388042;28;20028;-59
2022/07/22 11:26:58;;;;;;;14.25;3.10;;;23.50;64.60;;;;;;10386485;28;20038;-61
2022/07/22 11:31:59;;;;;;;19.45;2.90;;;23.50;64.30;;;;;;10400254;28;20021;-60
2022/07/22 11:37:00;;;;;;;11.20;2.85;;;23.50;63.80;;;;;;10375509;28;20061;-61
2022/07/22 11:42:02;;;;;;;17.58;3.38;;;23.60;63.50;;;;;;10375189;28;20041;-59
2022/07/22 11:47:05;;;;;;;9.98;2.50;;;23.60;62.90;;;;;;10401115;28;20035;-58
2022/07/22 11:52:11;;;;;;;14.10;2.92;;;23.60;62.30;;;;;;10390721;28;20429;-58
2022/07/22 11:57:14;;;;;;;8.93;2.33;;;23.60;62.00;;;;;;10388174;28;20115;-58
2022/07/22 12:02:15;;;;;;;7.63;2.17;;;23.60;61.80;;;;;;10394028;28;20021;-61
2022/07/22 12:07:16;;;;;;;7.22;2.50;;;23.60;61.50;;;;;;10394532;28;20042;-58
2022/07/22 12:12:17;;;;;;;8.65;2.70;;;23.60;61.10;;;;;;10407662;28;20033;-61
2022/07/22 12:17:26;;;;;;;15.90;3.10;;;23.60;61.20;;;;;;10386200;28;20033;-60
2022/07/22 12:22:27;;;;;;;11.00;3.33;;;23.60;61.40;;;;;;10369072;28;20084;-60
2022/07/22 12:27:28;;;;;;;11.38;2.28;;;23.60;61.20;;;;;;10370716;28;20112;-60
2022/07/22 12:32:29;;;;;;;9.98;2.40;;;23.60;61.00;;;;;;10371455;28;20040;-59
2022/07/22 12:37:34;;;;;;;8.18;2.20;;;23.60;60.90;;;;;;10391038;28;20386;-60
2022/07/22 12:42:42;;;;;;;4.75;2.03;;;23.60;60.60;;;;;;10402307;28;20458;-62
2022/07/22 12:47:53;;;;;;;3.20;1.83;;;23.60;60.90;;;;;;10380325;28;20057;-61
2022/07/22 12:53:05;;;;;;;8.73;3.00;;;23.60;60.60;;;;;;10396935;28;20037;-62
2022/07/22 12:58:07;;;;;;;11.15;2.22;;;23.60;60.70;;;;;;10407126;28;20026;-60
2022/07/22 13:03:08;;;;;;;6.13;2.17;;;23.60;60.60;;;;;;10404021;28;20541;-60
2022/07/22 13:08:09;;;;;;;7.28;2.45;;;23.60;60.60;;;;;;10377906;28;20037;-64
2022/07/22 13:13:10;;;;;;;11.50;3.92;;;23.60;60.20;;;;;;10377647;28;20401;-62
2022/07/22 13:18:10;;;;;;;12.65;2.97;;;23.50;60.40;;;;;;10390427;28;20044;-63
2022/07/22 13:23:11;;;;;;;13.80;3.17;;;23.50;60.30;;;;;;10376972;28;20049;-62
2022/07/22 13:28:12;;;;;;;8.30;2.15;;;23.50;60.00;;;;;;10390200;28;20423;-61
2022/07/22 13:33:13;;;;;;;6.43;2.45;;;23.50;60.00;;;;;;10409516;28;20026;-63
2022/07/22 13:38:16;;;;;;;6.05;2.20;;;23.50;60.00;;;;;;10403155;28;20059;-61
2022/07/22 13:43:25;;;;;;;6.25;2.00;;;23.50;59.70;;;;;;10392909;28;20038;-64
2022/07/22 13:48:26;;;;;;;7.00;2.53;;;23.50;59.80;;;;;;10376053;28;20489;-64
2022/07/22 13:53:26;;;;;;;7.15;2.53;;;23.50;59.90;;;;;;10377875;28;20033;-64
2022/07/22 13:58:27;;;;;;;6.63;1.95;;;23.50;60.50;;;;;;10376754;28;20422;-64
2022/07/22 14:03:29;;;;;;;7.32;2.97;;;23.50;60.70;;;;;;10380608;28;21360;-64
2022/07/22 14:08:29;;;;;;;3.85;1.70;;;23.50;60.80;;;;;;10380490;28;20030;-65
2022/07/22 14:13:30;;;;;;;3.50;1.75;;;23.50;60.90;;;;;;10386210;28;20501;-64
2022/07/22 14:18:31;;;;;;;4.18;2.25;;;23.50;61.10;;;;;;10377148;28;20065;-64
2022/07/22 14:23:31;;;;;;;4.55;1.80;;;23.50;61.20;;;;;;10402687;28;20389;-64
2022/07/22 14:28:32;;;;;;;3.28;1.65;;;23.40;61.30;;;;;;10379190;28;20040;-64
2022/07/22 14:33:33;;;;;;;5.00;1.98;;;23.50;61.40;;;;;;10399345;28;20633;-64
2022/07/22 14:38:34;;;;;;;3.30;1.45;;;23.50;61.50;;;;;;10383198;28;20386;-64
2022/07/22 14:43:36;;;;;;;4.13;1.88;;;23.50;61.60;;;;;;10388409;28;20052;-64
2022/07/22 14:48:41;;;;;;;5.50;1.63;;;23.50;61.70;;;;;;10381353;28;20057;-63
2022/07/22 14:53:42;;;;;;;3.40;2.20;;;23.50;61.70;;;;;;10416141;28;20159;-63
2022/07/22 14:58:43;;;;;;;11.93;2.50;;;23.40;61.80;;;;;;10390878;28;20041;-63
2022/07/22 15:03:43;;;;;;;14.10;2.83;;;23.40;61.10;;;;;;10393226;28;20028;-63
2022/07/22 15:08:44;;;;;;;10.20;3.33;;;23.40;60.50;;;;;;10395359;28;20037;-62
2022/07/22 15:13:45;;;;;;;14.00;3.15;;;23.50;60.70;;;;;;10387525;28;20112;-63
2022/07/22 15:18:46;;;;;;;23.65;4.78;;;23.50;60.60;;;;;;10405092;28;20033;-63
2022/07/22 15:23:47;;;;;;;26.48;4.00;;;23.50;59.90;;;;;;10411393;28;20063;-62
2022/07/22 15:28:47;;;;;;;46.55;5.55;;;23.50;59.60;;;;;;10377688;28;20037;-65
2022/07/22 15:33:49;;;;;;;25.85;4.88;;;23.50;59.70;;;;;;10378154;28;20029;-65
2022/07/22 15:38:50;;;;;;;28.95;4.10;;;23.50;60.10;;;;;;10390324;28;20451;-62
2022/07/22 15:43:51;;;;;;;33.33;4.05;;;23.50;60.00;;;;;;10387899;28;20048;-61
2022/07/22 15:48:51;;;;;;;18.38;3.22;;;23.50;59.70;;;;;;10393940;28;20037;-61
2022/07/22 15:53:52;;;;;;;17.33;3.47;;;23.50;59.50;;;;;;10376369;28;20047;-61
2022/07/22 16:04:12;;;;;;;8.27;2.58;;;23.50;58.60;;;;;;10383943;28;20475;-61
2022/07/22 16:09:13;;;;;;;7.13;2.80;;;23.70;57.90;;;;;;10386101;28;20033;-60
2022/07/22 16:14:13;;;;;;;5.78;2.63;;;23.80;59.20;;;;;;10371653;28;20033;-61
2022/07/22 16:19:14;;;;;;;7.25;2.58;;;23.90;58.30;;;;;;10363956;28;20053;-60
2022/07/22 16:24:15;;;;;;;7.38;2.95;;;24.00;57.80;;;;;;10384422;28;20029;-59
2022/07/22 16:29:16;;;;;;;7.97;2.70;;;23.90;58.80;;;;;;10415190;28;20121;-59
2022/07/22 16:34:17;;;;;;;7.45;3.95;;;23.90;58.70;;;;;;10367829;28;20034;-62
2022/07/22 16:39:18;;;;;;;5.13;2.45;;;23.90;59.10;;;;;;10367348;28;20543;-59
2022/07/22 16:44:19;;;;;;;13.63;2.80;;;23.90;58.80;;;;;;10367049;28;20041;-61
2022/07/22 16:49:19;;;;;;;7.00;2.58;;;23.80;58.90;;;;;;10367641;28;20517;-59
2022/07/22 16:54:20;;;;;;;7.78;2.20;;;23.80;58.70;;;;;;10404823;28;20100;-62
2022/07/22 16:59:21;;;;;;;6.43;2.42;;;23.70;58.70;;;;;;10403900;28;20149;-62
2022/07/22 17:04:22;;;;;;;11.20;3.20;;;23.80;59.30;;;;;;10380811;28;20457;-58
2022/07/22 17:09:22;;;;;;;3.95;2.70;;;23.70;58.60;;;;;;10380129;28;20116;-59
2022/07/22 17:14:23;;;;;;;8.93;3.10;;;23.70;58.80;;;;;;10389289;28;20088;-61
2022/07/22 17:19:24;;;;;;;5.60;2.75;;;23.70;58.90;;;;;;10366226;28;20664;-61
2022/07/22 17:24:25;;;;;;;6.03;2.33;;;23.60;58.80;;;;;;10383373;28;20487;-61
2022/07/22 17:29:25;;;;;;;7.18;3.08;;;23.60;59.10;;;;;;10414269;28;20512;-60
2022/07/22 17:34:26;;;;;;;6.35;2.55;;;23.60;59.00;;;;;;10387678;28;20112;-62
2022/07/22 17:39:27;;;;;;;3.38;2.10;;;23.50;58.90;;;;;;10392389;28;20034;-61
2022/07/22 17:44:28;;;;;;;4.10;2.13;;;23.50;59.00;;;;;;10380763;28;20068;-61
2022/07/22 17:49:29;;;;;;;6.22;2.88;;;23.50;58.70;;;;;;10393519;28;20033;-61
2022/07/22 17:54:29;;;;;;;5.35;2.25;;;23.50;58.60;;;;;;10383848;28;20026;-61
2022/07/22 17:59:30;;;;;;;9.05;2.90;;;23.50;58.60;;;;;;10371861;28;20034;-61
2022/07/22 18:04:31;;;;;;;5.60;2.50;;;23.50;58.70;;;;;;10377819;28;20097;-65
2022/07/22 18:09:32;;;;;;;8.32;2.50;;;23.50;58.50;;;;;;10384656;28;20400;-64
2022/07/22 18:14:34;;;;;;;5.68;2.00;;;23.50;58.70;;;;;;10369565;28;20029;-63
2022/07/22 18:19:35;;;;;;;5.47;2.22;;;23.40;58.80;;;;;;10397436;28;20111;-62
2022/07/22 18:24:36;;;;;;;6.45;2.70;;;23.50;58.30;;;;;;10387474;28;20037;-63
2022/07/22 18:29:37;;;;;;;9.75;3.25;;;23.40;58.50;;;;;;10392959;28;20033;-61
2022/07/22 18:34:38;;;;;;;5.70;2.25;;;23.40;58.40;;;;;;10385916;28;20068;-62
2022/07/22 18:39:38;;;;;;;5.57;2.65;;;23.40;58.70;;;;;;10374434;28;20021;-63
2022/07/22 18:44:39;;;;;;;6.43;1.90;;;23.40;58.90;;;;;;10374370;28;20050;-62
2022/07/22 18:49:40;;;;;;;4.85;2.13;;;23.40;58.90;;;;;;10383051;28;20064;-62
2022/07/22 18:54:41;;;;;;;7.50;2.08;;;23.40;59.10;;;;;;10370074;28;20037;-62
2022/07/22 18:59:42;;;;;;;4.40;2.17;;;23.40;58.90;;;;;;10375790;28;20419;-62
2022/07/22 19:04:43;;;;;;;6.57;2.42;;;23.40;59.00;;;;;;10380318;28;20021;-62
2022/07/22 19:09:44;;;;;;;9.07;2.28;;;23.40;58.90;;;;;;10392162;28;20047;-62
2022/07/22 19:14:45;;;;;;;5.88;2.20;;;23.40;58.90;;;;;;10402700;28;20472;-62
2022/07/22 19:19:46;;;;;;;4.38;2.22;;;23.40;59.00;;;;;;10400872;28;20092;-62
2022/07/22 19:24:47;;;;;;;4.70;1.70;;;23.40;59.20;;;;;;10384110;28;20025;-61
2022/07/22 19:29:48;;;;;;;6.50;2.38;;;23.40;59.30;;;;;;10387747;28;20017;-60
2022/07/22 19:34:48;;;;;;;6.32;1.92;;;23.40;59.40;;;;;;10380930;28;20026;-60
2022/07/22 19:39:50;;;;;;;8.90;2.45;;;23.40;59.50;;;;;;10372272;28;20034;-60
2022/07/22 19:44:51;;;;;;;11.25;3.65;;;23.40;59.80;;;;;;10370464;28;20389;-58
2022/07/22 19:49:52;;;;;;;13.02;3.15;;;23.40;59.90;;;;;;10369175;28;20025;-59
2022/07/22 19:54:53;;;;;;;9.85;2.92;;;23.40;59.80;;;;;;10401952;28;20033;-63
2022/07/22 19:59:53;;;;;;;17.08;3.03;;;23.40;59.80;;;;;;10390798;28;20022;-60
2022/07/22 20:04:54;;;;;;;10.82;3.70;;;23.40;60.20;;;;;;10387237;28;20030;-60
2022/07/22 20:09:55;;;;;;;8.30;3.05;;;23.40;60.30;;;;;;10390535;28;20034;-61
2022/07/22 20:14:56;;;;;;;14.60;3.05;;;23.40;60.40;;;;;;10379052;28;20525;-60
2022/07/22 20:19:57;;;;;;;12.18;3.65;;;23.40;60.40;;;;;;10376652;28;20022;-60
2022/07/22 20:24:57;;;;;;;8.32;2.75;;;23.40;60.50;;;;;;10390015;28;20404;-60
2022/07/22 20:29:58;;;;;;;9.35;3.15;;;23.40;60.60;;;;;;10390717;28;20028;-60
2022/07/22 20:34:59;;;;;;;6.97;2.42;;;23.40;60.70;;;;;;10383260;28;20018;-61
2022/07/22 20:39:59;;;;;;;5.93;2.67;;;23.40;60.70;;;;;;10381149;28;20026;-61
2022/07/22 20:45:00;;;;;;;7.03;2.35;;;23.40;60.80;;;;;;10378769;28;20033;-59
2022/07/22 20:50:01;;;;;;;6.63;2.28;;;23.40;60.80;;;;;;10367163;28;20037;-60
2022/07/22 20:55:02;;;;;;;7.13;2.70;;;23.40;60.90;;;;;;10355624;28;20377;-60
2022/07/22 21:00:06;;;;;;;7.53;2.60;;;23.40;61.10;;;;;;10378597;28;20029;-59
2022/07/22 21:05:07;;;;;;;7.13;2.38;;;23.40;61.00;;;;;;10381095;28;20121;-60
2022/07/22 21:10:08;;;;;;;7.82;2.42;;;23.40;61.30;;;;;;10378696;28;20038;-61
2022/07/22 21:15:09;;;;;;;5.47;1.73;;;23.30;61.20;;;;;;10367664;28;20045;-62
2022/07/22 21:20:11;;;;;;;7.07;2.35;;;23.30;61.20;;;;;;10370630;28;20060;-62
2022/07/22 21:25:12;;;;;;;6.72;1.92;;;23.30;61.20;;;;;;10381761;28;20038;-62
2022/07/22 21:30:13;;;;;;;4.47;1.50;;;23.30;61.30;;;;;;10372301;28;20026;-61
2022/07/22 21:35:16;;;;;;;3.75;1.13;;;23.30;61.30;;;;;;10376208;28;20030;-63
2022/07/22 21:40:17;;;;;;;3.30;1.45;;;23.30;61.30;;;;;;10366280;28;20030;-62
2022/07/22 21:45:18;;;;;;;4.55;1.95;;;23.30;61.30;;;;;;10367007;28;20026;-62
2022/07/22 21:50:19;;;;;;;4.30;1.70;;;23.30;61.30;;;;;;10369658;28;20029;-62
2022/07/22 21:55:19;;;;;;;4.78;1.80;;;23.30;61.40;;;;;;10399926;28;20038;-61
2022/07/22 22:00:20;;;;;;;3.65;1.60;;;23.30;61.40;;;;;;10386609;28;20511;-62
2022/07/22 22:05:21;;;;;;;2.95;1.98;;;23.30;61.40;;;;;;10374357;28;20026;-62
2022/07/22 22:10:22;;;;;;;3.95;2.08;;;23.30;61.30;;;;;;10372883;28;20034;-61
2022/07/22 22:15:22;;;;;;;3.45;1.48;;;23.30;61.40;;;;;;10373619;28;20080;-62
2022/07/22 22:20:24;;;;;;;3.00;1.55;;;23.30;61.40;;;;;;10373863;28;20030;-61
2022/07/22 22:25:24;;;;;;;2.83;2.10;;;23.30;61.40;;;;;;10377355;28;20036;-62
2022/07/22 22:30:25;;;;;;;2.67;1.40;;;23.30;61.40;;;;;;10387329;28;20389;-62
2022/07/22 22:35:26;;;;;;;4.18;1.08;;;23.30;61.40;;;;;;10399730;28;20033;-62
2022/07/22 22:40:26;;;;;;;2.55;1.13;;;23.30;61.40;;;;;;10393197;28;20397;-61
2022/07/22 22:45:27;;;;;;;2.97;1.42;;;23.30;61.40;;;;;;10372288;28;20360;-61
2022/07/22 22:50:29;;;;;;;4.78;1.45;;;23.30;61.50;;;;;;10371955;28;20037;-62
2022/07/22 22:55:30;;;;;;;2.28;1.10;;;23.30;61.50;;;;;;10381712;28;20034;-62
2022/07/22 23:00:31;;;;;;;3.17;1.40;;;23.20;61.50;;;;;;10385606;28;20755;-62
2022/07/22 23:05:31;;;;;;;2.20;1.35;;;23.20;61.50;;;;;;10386320;28;20036;-62
2022/07/22 23:10:32;;;;;;;3.85;1.52;;;23.20;61.50;;;;;;10371008;28;20032;-61
2022/07/22 23:15:33;;;;;;;1.98;0.98;;;23.20;61.50;;;;;;10370920;28;20038;-61
2022/07/22 23:20:48;;;;;;;3.90;1.40;;;23.30;61.60;;;;;;10372937;28;20034;-62
2022/07/22 23:25:50;;;;;;;2.30;1.15;;;23.20;61.50;;;;;;10411366;28;20116;-62
2022/07/22 23:30:51;;;;;;;4.18;1.20;;;23.20;61.50;;;;;;10391344;28;20034;-62
2022/07/22 23:35:53;;;;;;;2.85;1.27;;;23.20;61.60;;;;;;10369913;28;20030;-61
2022/07/22 23:40:53;;;;;;;1.75;1.00;;;23.20;61.60;;;;;;10353366;28;20042;-61
2022/07/22 23:45:54;;;;;;;1.20;0.80;;;23.20;61.60;;;;;;10369254;28;20490;-61
2022/07/22 23:50:55;;;;;;;1.83;0.90;;;23.20;61.50;;;;;;10369079;28;20045;-61
2022/07/22 23:55:56;;;;;;;2.55;1.48;;;23.20;61.60;;;;;;10369625;28;20030;-61
